LAR weather

La Arrobleda Airport
Caloto, Cauca Department, Colombia

Public forecast

Using degrees Celsius for public forecast. Weather courtesy of forecast.io.

METAR (pilot weather report)

Closest report is Alfonso Bonilla Aragon International Airport, 25.3 nm (46.8 km) N. Retrieved 2019/08/25 23:00 UTC (56 minutes ago):

SKCL 252300Z 32010KT 9000 FEW020 BKN300 28/17 A2986 NOSIG RMKHZ

TAF (pilot weather forecast)

Closest forecast is Alfonso Bonilla Aragon International Airport, 25.3 nm (46.8 km) N. Retrieved 2019/08/25 18:56 UTC (5 hours ago):

TAF SKCL 251630Z 2518/2618 31011KT 9999 FEW030 SCT120 BECMG 2602/2604 02004KT TX33/2519Z TN18/2611Z